Time;durP1;ratioP1;P1;durP2;ratioP2;P2;SDS_P1;SDS_P2;PMS_P1;PMS_P2;Temp;Humidity;BMP_temperature;BMP_pressure;BME280_temperature;BME280_humidity;BME280_pressure;Samples;Min_cycle;Max_cycle;Signal;HPM_P1;HPM_P2
2023/02/14 00:02:34;;;;;;;12.35;6.78;;;;;;;8.37;100.00;101683.38;5015225;28;20036;-78
2023/02/14 00:05:05;;;;;;;12.55;6.93;;;;;;;8.38;100.00;101668.97;5014499;28;20038;-78
2023/02/14 00:07:42;;;;;;;17.10;8.20;;;;;;;8.29;100.00;101666.28;5016054;28;20427;-79
2023/02/14 00:10:12;;;;;;;15.15;8.13;;;;;;;8.40;100.00;101679.59;4982659;28;20038;-77
2023/02/14 00:12:40;;;;;;;9.95;6.65;;;;;;;8.41;100.00;101669.72;5031416;28;20376;-78
2023/02/14 00:15:29;;;;;;;11.25;6.30;;;;;;;8.44;100.00;101681.03;5015127;28;20492;-79
2023/02/14 00:18:03;;;;;;;16.52;7.85;;;;;;;8.42;100.00;101674.94;4987920;28;20065;-78
2023/02/14 00:20:35;;;;;;;13.25;7.70;;;;;;;8.38;100.00;101668.13;5014947;28;20042;-78
2023/02/14 00:23:01;;;;;;;14.27;6.97;;;;;;;8.40;100.00;101678.75;5014296;28;20129;-78
2023/02/14 00:25:27;;;;;;;15.50;6.50;;;;;;;8.37;100.00;101674.47;4998562;28;20120;-78
2023/02/14 00:27:54;;;;;;;18.65;9.18;;;;;;;8.37;100.00;101671.81;5014501;28;20076;-79
2023/02/14 00:30:24;;;;;;;16.45;9.20;;;;;;;8.35;100.00;101671.09;5014532;28;20033;-79
2023/02/14 00:32:50;;;;;;;15.82;7.93;;;;;;;8.33;100.00;101662.34;5014270;28;20030;-78
2023/02/14 00:35:15;;;;;;;16.95;8.00;;;;;;;8.25;100.00;101664.88;4981579;28;20034;-79
2023/02/14 00:37:41;;;;;;;12.23;7.05;;;;;;;8.20;100.00;101654.56;4997655;28;20495;-78
2023/02/14 00:40:08;;;;;;;16.33;8.40;;;;;;;8.12;100.00;101646.38;4981334;28;20034;-78
2023/02/14 00:42:34;;;;;;;9.85;6.03;;;;;;;8.08;100.00;101642.28;5014238;28;20034;-78
2023/02/14 00:45:02;;;;;;;15.27;8.65;;;;;;;8.06;100.00;101654.97;5013038;28;20087;-80
2023/02/14 00:47:31;;;;;;;20.92;9.68;;;;;;;7.97;100.00;101653.97;4998125;28;20026;-78
2023/02/14 00:50:01;;;;;;;20.35;9.68;;;;;;;7.81;100.00;101649.13;4982225;28;20101;-78
2023/02/14 00:52:36;;;;;;;17.58;9.32;;;;;;;7.69;100.00;101648.34;4998856;28;20480;-79
2023/02/14 00:55:01;;;;;;;12.05;7.13;;;;;;;7.60;100.00;101645.66;4981823;28;20030;-79
2023/02/14 00:57:30;;;;;;;13.60;8.88;;;;;;;7.57;100.00;101654.81;5013215;28;20468;-79
2023/02/14 00:59:55;;;;;;;19.38;9.23;;;;;;;7.56;100.00;101646.91;5014112;28;20029;-78
2023/02/14 01:02:21;;;;;;;14.10;7.93;;;;;;;7.53;100.00;101653.38;4981721;28;20034;-79
2023/02/14 01:04:47;;;;;;;19.77;8.60;;;;;;;7.55;100.00;101643.38;5014536;28;20030;-78
2023/02/14 01:07:12;;;;;;;15.85;9.18;;;;;;;7.64;100.00;101636.38;4997764;28;20065;-79
2023/02/14 01:09:38;;;;;;;15.32;7.32;;;;;;;7.68;100.00;101621.75;5012776;28;20087;-78
2023/02/14 01:12:04;;;;;;;18.70;10.60;;;;;;;7.81;100.00;101627.69;4997795;28;20025;-77
2023/02/14 01:14:30;;;;;;;11.35;6.72;;;;;;;7.87;100.00;101616.44;5014038;28;20400;-77
2023/02/14 01:16:55;;;;;;;14.95;9.35;;;;;;;7.91;100.00;101611.63;4996713;28;20041;-79
2023/02/14 01:19:26;;;;;;;13.05;8.18;;;;;;;7.95;100.00;101615.75;5013821;28;20480;-78
2023/02/14 01:21:51;;;;;;;16.20;8.32;;;;;;;8.02;100.00;101610.69;5013760;28;20054;-77
2023/02/14 01:24:20;;;;;;;15.77;7.80;;;;;;;7.90;100.00;101586.69;4997424;28;20492;-77
2023/02/14 01:26:46;;;;;;;18.45;8.82;;;;;;;8.06;100.00;101598.72;5013482;28;20037;-80
2023/02/14 01:29:11;;;;;;;17.63;7.70;;;;;;;8.15;100.00;101598.75;4996995;28;20029;-77
2023/02/14 01:31:40;;;;;;;13.35;7.38;;;;;;;8.23;100.00;101591.81;5013250;28;20026;-77
2023/02/14 01:34:08;;;;;;;11.80;6.63;;;;;;;8.27;100.00;101590.56;5013152;28;20535;-77
2023/02/14 01:36:36;;;;;;;11.75;6.05;;;;;;;8.41;100.00;101581.28;4997309;28;20136;-77
2023/02/14 01:39:10;;;;;;;13.57;6.88;;;;;;;8.41;100.00;101554.47;5012942;28;20119;-80
2023/02/14 01:41:37;;;;;;;13.05;7.05;;;;;;;8.59;100.00;101560.81;5013172;28;20030;-78
2023/02/14 01:44:27;;;;;;;16.98;6.93;;;;;;;8.67;100.00;101560.94;5013279;28;20479;-77
2023/02/14 01:46:52;;;;;;;11.77;6.97;;;;;;;8.70;100.00;101547.22;4996129;28;20041;-78
2023/02/14 01:49:43;;;;;;;13.48;7.15;;;;;;;8.75;100.00;101544.97;4996950;28;20137;-78
2023/02/14 01:52:20;;;;;;;13.05;8.80;;;;;;;8.80;100.00;101542.69;4980182;28;20407;-77
2023/02/14 01:54:55;;;;;;;18.48;8.43;;;;;;;8.78;100.00;101538.47;4981487;28;20073;-78
2023/02/14 01:57:29;;;;;;;14.82;6.75;;;;;;;8.95;100.00;101544.94;4996360;28;20026;-78
2023/02/14 02:00:55;;;;;;;12.93;6.82;;;;;;;8.95;100.00;101548.47;4996492;28;20036;-76
2023/02/14 02:02:42;;;;;;;16.85;6.75;;;;;;;8.98;100.00;101539.28;4985379;28;20092;-78
2023/02/14 02:05:08;;;;;;;14.95;6.88;;;;;;;9.04;100.00;101552.09;4996717;28;20440;-78
2023/02/14 02:07:35;;;;;;;10.02;5.60;;;;;;;9.05;100.00;101532.34;4996674;28;20403;-77
2023/02/14 02:10:04;;;;;;;14.65;7.10;;;;;;;9.09;100.00;101547.13;4996376;28;20029;-77
2023/02/14 02:12:34;;;;;;;14.57;7.53;;;;;;;9.19;100.00;101552.47;5012864;28;20034;-78
2023/02/14 02:15:01;;;;;;;14.77;7.45;;;;;;;9.21;100.00;101537.91;4981014;28;20034;-79
2023/02/14 02:17:46;;;;;;;14.13;7.43;;;;;;;9.26;100.00;101545.50;4996378;28;20056;-78
2023/02/14 02:20:17;;;;;;;13.48;5.57;;;;;;;9.16;100.00;101526.78;5012911;28;20052;-78
2023/02/14 02:22:58;;;;;;;10.13;5.05;;;;;;;9.39;100.00;101532.63;5012822;28;20069;-78
2023/02/14 02:25:43;;;;;;;12.90;6.28;;;;;;;9.28;100.00;101537.31;5012650;28;20046;-77
2023/02/14 02:28:45;;;;;;;17.52;6.88;;;;;;;9.09;100.00;101539.09;5011884;28;20029;-77
2023/02/14 02:31:36;;;;;;;21.77;7.60;;;;;;;8.96;100.00;101531.38;5012672;28;20038;-77
2023/02/14 02:34:24;;;;;;;9.90;4.93;;;;;;;8.89;100.00;101538.31;4996364;28;20092;-79
2023/02/14 02:37:28;;;;;;;14.00;7.22;;;;;;;8.81;100.00;101524.78;5013212;28;20113;-78
2023/02/14 02:40:03;;;;;;;15.80;7.82;;;;;;;8.76;100.00;101527.91;4996159;28;20042;-79
2023/02/14 02:42:51;;;;;;;7.35;3.83;;;;;;;8.78;100.00;101523.22;5013160;28;20373;-77
2023/02/14 02:46:46;;;;;;;14.38;7.07;;;;;;;8.80;100.00;101521.25;4996200;28;20029;-77
2023/02/14 02:48:22;;;;;;;19.02;7.05;;;;;;;8.82;100.00;101514.91;4998695;28;20069;-77
2023/02/14 02:54:12;;;;;;;13.60;5.90;;;;;;;8.79;100.00;101503.47;4984433;28;20373;-78
2023/02/14 02:56:49;;;;;;;13.05;6.07;;;;;;;8.93;100.00;101509.38;5016214;28;20038;-77
2023/02/14 02:59:26;;;;;;;19.95;7.30;;;;;;;8.92;100.00;101494.28;4980086;28;20133;-77
2023/02/14 03:02:03;;;;;;;15.52;6.70;;;;;;;9.00;100.00;101491.69;5012583;28;20508;-78
2023/02/14 03:09:58;;;;;;;13.23;5.78;;;;;;;9.14;100.00;101491.19;5002505;28;20033;-77
2023/02/14 03:12:33;;;;;;;18.30;7.95;;;;;;;9.16;100.00;101502.63;4982926;28;20049;-77
2023/02/14 03:15:07;;;;;;;16.70;7.15;;;;;;;9.19;100.00;101490.75;5016223;28;20061;-77
2023/02/14 03:17:32;;;;;;;14.18;7.10;;;;;;;9.26;100.00;101507.94;4998233;28;20030;-77
2023/02/14 03:20:16;;;;;;;15.43;7.43;;;;;;;9.31;100.00;101496.75;5016130;28;20030;-77
2023/02/14 03:23:00;;;;;;;10.20;4.10;;;;;;;9.36;100.00;101489.09;5015283;28;20396;-78
2023/02/14 03:25:44;;;;;;;14.45;7.30;;;;;;;9.40;100.00;101494.03;4983657;28;20066;-77
2023/02/14 03:28:21;;;;;;;16.52;6.88;;;;;;;9.43;100.00;101490.22;5015717;28;20123;-77
2023/02/14 03:30:53;;;;;;;16.55;6.97;;;;;;;9.42;100.00;101485.81;5015868;28;20037;-76
2023/02/14 03:33:55;;;;;;;8.68;4.78;;;;;;;9.43;100.00;101480.31;5031272;28;20030;-77
2023/02/14 03:36:26;;;;;;;18.85;7.60;;;;;;;9.41;100.00;101474.25;4997635;28;20038;-77
2023/02/14 03:39:13;;;;;;;13.45;7.30;;;;;;;9.48;100.00;101477.19;4998052;28;20045;-77
2023/02/14 03:41:47;;;;;;;18.88;6.72;;;;;;;9.49;100.00;101486.06;4985031;28;20500;-80
2023/02/14 03:44:18;;;;;;;12.75;6.30;;;;;;;9.44;100.00;101460.50;5014154;28;20472;-78
2023/02/14 03:46:50;;;;;;;9.52;5.05;;;;;;;9.52;100.00;101472.34;4999524;28;20036;-79
2023/02/14 03:49:24;;;;;;;11.18;5.95;;;;;;;9.49;100.00;101461.91;4999129;28;20033;-80
2023/02/14 03:51:54;;;;;;;12.98;5.38;;;;;;;9.55;100.00;101466.66;5014699;28;20080;-79
2023/02/14 03:54:22;;;;;;;15.52;7.28;;;;;;;9.53;100.00;101468.69;5015460;28;20036;-79
2023/02/14 03:56:51;;;;;;;14.75;6.43;;;;;;;9.56;100.00;101468.38;4998743;28;20116;-80
2023/02/14 03:59:21;;;;;;;15.57;7.93;;;;;;;9.51;100.00;101447.34;4999183;28;20042;-78
2023/02/14 04:01:59;;;;;;;23.48;5.82;;;;;;;9.65;100.00;101454.84;4998823;28;20042;-79
2023/02/14 04:04:27;;;;;;;20.15;7.55;;;;;;;9.66;100.00;101445.81;5014688;28;20041;-80
2023/02/14 04:06:53;;;;;;;17.55;7.50;;;;;;;9.68;100.00;101446.53;4998972;28;20079;-79
2023/02/14 04:09:21;;;;;;;6.60;4.13;;;;;;;9.74;100.00;101444.19;4998313;28;20049;-79
2023/02/14 04:11:49;;;;;;;21.40;7.90;;;;;;;9.68;100.00;101421.47;5014839;28;20041;-79
2023/02/14 04:14:15;;;;;;;20.30;7.95;;;;;;;9.83;100.00;101440.59;5013150;28;20053;-81
2023/02/14 04:19:28;;;;;;;14.65;6.00;;;;;;;9.82;100.00;101438.91;5001610;28;20124;-79
2023/02/14 04:21:54;;;;;;;12.63;4.30;;;;;;;9.78;100.00;101427.63;4997255;28;20048;-79
2023/02/14 04:24:20;;;;;;;13.35;5.25;;;;;;;9.88;100.00;101433.75;4998560;28;20034;-79
2023/02/14 04:27:08;;;;;;;20.85;8.80;;;;;;;9.91;100.00;101436.13;4997781;28;20123;-80
2023/02/14 04:29:51;;;;;;;14.63;7.28;;;;;;;9.96;100.00;101426.78;5017543;28;20101;-79
2023/02/14 04:32:33;;;;;;;18.73;7.55;;;;;;;9.96;100.00;101442.91;5000008;28;20033;-79
2023/02/14 04:34:59;;;;;;;21.33;7.82;;;;;;;10.02;100.00;101435.03;4998538;28;20034;-79
2023/02/14 04:37:24;;;;;;;14.13;5.53;;;;;;;10.02;100.00;101429.66;4981138;28;20499;-79
2023/02/14 04:39:50;;;;;;;16.35;6.13;;;;;;;10.10;100.00;101439.63;4998240;28;20045;-80
2023/02/14 04:42:16;;;;;;;18.27;6.72;;;;;;;10.10;100.00;101453.91;4981572;28;20121;-79
2023/02/14 04:44:41;;;;;;;14.60;6.18;;;;;;;10.13;100.00;101437.50;5014015;28;20052;-79
2023/02/14 04:47:07;;;;;;;14.60;5.32;;;;;;;10.13;100.00;101434.81;5014280;28;20042;-77
2023/02/14 04:49:34;;;;;;;27.20;5.65;;;;;;;10.18;100.00;101438.84;5013648;28;20065;-76
2023/02/14 04:52:00;;;;;;;19.65;6.28;;;;;;;10.05;100.00;101425.81;4982480;28;20057;-76
2023/02/14 04:54:26;;;;;;;10.20;5.55;;;;;;;10.12;100.00;101437.66;4997496;28;20045;-77
2023/02/14 04:56:52;;;;;;;23.58;7.88;;;;;;;10.11;100.00;101436.81;4998016;28;20037;-76
2023/02/14 04:59:21;;;;;;;19.95;6.47;;;;;;;10.09;100.00;101428.06;4997416;28;20045;-77
2023/02/14 05:01:47;;;;;;;21.20;8.10;;;;;;;10.12;100.00;101433.13;5013591;28;20025;-77
2023/02/14 05:04:13;;;;;;;19.73;6.80;;;;;;;10.13;100.00;101429.44;5013928;28;20041;-80
2023/02/14 05:06:42;;;;;;;30.15;8.43;;;;;;;10.02;100.00;101418.91;4997721;28;20046;-79
2023/02/14 05:09:08;;;;;;;24.73;7.63;;;;;;;10.10;100.00;101432.41;4997377;28;20041;-79
2023/02/14 05:11:33;;;;;;;14.57;4.97;;;;;;;10.07;100.00;101435.41;4997706;28;20042;-80
2023/02/14 05:13:59;;;;;;;9.57;4.47;;;;;;;10.06;100.00;101431.06;4997464;28;20033;-79
2023/02/14 05:16:24;;;;;;;19.42;7.38;;;;;;;9.98;100.00;101422.09;4997768;28;20051;-79
2023/02/14 05:18:50;;;;;;;13.90;5.45;;;;;;;10.08;100.00;101449.69;4981345;28;20379;-80
2023/02/14 05:21:16;;;;;;;11.20;4.53;;;;;;;10.08;100.00;101447.88;4997111;28;20021;-78
2023/02/14 05:23:42;;;;;;;18.95;6.15;;;;;;;10.08;100.00;101447.00;4997597;28;20365;-78
2023/02/14 05:26:08;;;;;;;16.60;5.72;;;;;;;10.12;100.00;101443.03;4996130;28;20038;-78
2023/02/14 05:28:34;;;;;;;20.35;6.90;;;;;;;10.13;100.00;101448.25;4997456;28;20041;-78
2023/02/14 05:31:00;;;;;;;21.35;5.97;;;;;;;10.01;100.00;101416.41;5013470;28;20764;-81
2023/02/14 05:33:29;;;;;;;25.40;6.93;;;;;;;10.21;100.00;101438.53;5012522;28;20476;-78
2023/02/14 05:36:04;;;;;;;21.90;5.68;;;;;;;10.21;100.00;101436.69;4997377;28;20084;-78
2023/02/14 05:38:32;;;;;;;16.73;5.63;;;;;;;10.28;100.00;101445.03;5012215;28;20038;-80
2023/02/14 05:41:01;;;;;;;13.63;4.35;;;;;;;10.05;100.00;101397.09;5013266;28;20029;-78
2023/02/14 05:43:29;;;;;;;14.05;5.18;;;;;;;10.31;100.00;101436.63;4977645;28;20115;-79
2023/02/14 05:45:55;;;;;;;15.30;6.05;;;;;;;10.31;100.00;101424.03;5013125;28;20064;-78
2023/02/14 05:48:21;;;;;;;18.73;7.25;;;;;;;10.39;100.00;101428.63;4997124;28;20034;-78
2023/02/14 05:50:47;;;;;;;14.77;5.45;;;;;;;10.43;100.00;101430.00;5013265;28;20033;-79
2023/02/14 05:53:12;;;;;;;15.30;5.28;;;;;;;10.51;100.00;101426.53;5011813;28;20026;-78
2023/02/14 05:55:41;;;;;;;18.83;5.30;;;;;;;10.54;100.00;101435.09;4980813;28;20029;-78
2023/02/14 05:58:07;;;;;;;23.17;6.18;;;;;;;10.52;100.00;101417.44;4996774;28;20476;-79
2023/02/14 06:00:36;;;;;;;21.55;4.95;;;;;;;10.60;100.00;101414.81;5012805;28;20104;-78
2023/02/14 06:03:01;;;;;;;15.68;5.28;;;;;;;10.50;100.00;101408.69;5013054;28;20025;-78
2023/02/14 06:05:27;;;;;;;21.75;5.13;;;;;;;10.52;100.00;101428.22;4995901;28;20036;-80
2023/02/14 06:07:53;;;;;;;13.32;5.22;;;;;;;10.47;100.00;101417.91;5012438;28;20140;-78
2023/02/14 06:10:21;;;;;;;17.90;6.85;;;;;;;10.46;100.00;101421.63;4980684;28;20366;-79
2023/02/14 06:12:51;;;;;;;15.38;4.90;;;;;;;10.48;100.00;101425.00;5011733;28;20030;-78
2023/02/14 06:15:19;;;;;;;19.00;5.15;;;;;;;10.61;100.00;101426.41;4980761;28;20511;-78
2023/02/14 06:17:50;;;;;;;22.75;6.30;;;;;;;10.72;100.00;101424.28;4996018;28;20044;-78
2023/02/14 06:20:16;;;;;;;24.20;6.50;;;;;;;10.77;100.00;101415.75;5012471;28;20048;-78
2023/02/14 06:22:42;;;;;;;20.15;5.40;;;;;;;10.85;100.00;101418.47;4980248;28;20461;-79
2023/02/14 06:25:07;;;;;;;19.38;5.47;;;;;;;10.85;100.00;101415.78;4994872;28;20429;-78
2023/02/14 06:27:36;;;;;;;12.55;4.32;;;;;;;10.83;100.00;101411.56;4980483;28;20034;-79
2023/02/14 06:30:11;;;;;;;19.02;5.43;;;;;;;10.81;100.00;101405.50;4996597;28;20053;-79
2023/02/14 06:32:36;;;;;;;12.68;4.93;;;;;;;10.88;100.00;101418.16;5012489;28;20026;-78
2023/02/14 06:35:05;;;;;;;21.17;5.70;;;;;;;10.93;100.00;101413.13;5012297;28;20046;-78
2023/02/14 06:37:31;;;;;;;19.23;3.90;;;;;;;10.99;100.00;101414.31;4996969;28;20033;-79
2023/02/14 06:39:57;;;;;;;23.38;5.78;;;;;;;11.02;100.00;101415.84;4999536;28;20099;-78
2023/02/14 06:42:22;;;;;;;20.63;5.78;;;;;;;10.99;100.00;101409.78;5000261;28;20037;-78
2023/02/14 06:44:48;;;;;;;16.92;5.38;;;;;;;10.98;100.00;101413.47;4983608;28;20038;-78
2023/02/14 06:47:14;;;;;;;21.27;5.85;;;;;;;10.96;100.00;101410.09;5000492;28;20112;-77
2023/02/14 06:49:39;;;;;;;18.98;4.40;;;;;;;10.88;100.00;101406.53;5000164;28;20133;-77
2023/02/14 06:52:08;;;;;;;35.95;10.52;;;;;;;10.69;100.00;101408.47;4999980;28;20124;-77
2023/02/14 06:54:33;;;;;;;28.38;8.27;;;;;;;10.68;100.00;101422.91;4984099;28;20124;-78
2023/02/14 06:57:01;;;;;;;31.75;9.02;;;;;;;10.66;100.00;101424.91;4999967;28;20034;-80
2023/02/14 06:59:27;;;;;;;25.77;7.65;;;;;;;10.69;100.00;101424.63;5000267;28;20030;-77
2023/02/14 07:01:52;;;;;;;21.60;8.88;;;;;;;10.66;100.00;101424.06;5000053;28;20371;-77
2023/02/14 07:04:21;;;;;;;21.90;5.88;;;;;;;10.59;100.00;101413.13;5014841;28;20112;-79
2023/02/14 07:06:49;;;;;;;18.77;5.78;;;;;;;10.55;100.00;101409.06;5000916;28;20038;-77
2023/02/14 07:09:16;;;;;;;18.08;6.70;;;;;;;10.57;100.00;101415.97;5015806;28;20080;-80
2023/02/14 07:11:48;;;;;;;18.95;5.63;;;;;;;10.43;100.00;101419.25;5000482;28;20030;-78
2023/02/14 07:14:14;;;;;;;12.88;4.88;;;;;;;10.42;100.00;101422.09;4999847;28;20103;-78
2023/02/14 07:16:42;;;;;;;9.15;3.53;;;;;;;10.44;100.00;101422.78;4999418;28;20434;-79
2023/02/14 07:19:11;;;;;;;15.20;5.53;;;;;;;10.47;100.00;101420.59;4983241;28;20030;-78
2023/02/14 07:21:36;;;;;;;11.18;4.72;;;;;;;10.55;100.00;101422.50;4999633;28;20029;-79
2023/02/14 07:24:05;;;;;;;9.25;4.05;;;;;;;10.67;100.00;101420.41;5014069;28;20042;-78
2023/02/14 07:26:30;;;;;;;17.45;4.72;;;;;;;10.81;100.00;101421.63;4999766;28;20446;-78
2023/02/14 07:28:56;;;;;;;8.38;4.43;;;;;;;10.81;100.00;101419.78;4983556;28;20049;-78
2023/02/14 07:31:22;;;;;;;9.60;4.50;;;;;;;10.61;100.00;101412.94;4999476;28;20033;-78
2023/02/14 07:33:51;;;;;;;8.25;3.25;;;;;;;10.57;100.00;101432.09;4999524;28;20030;-78
2023/02/14 07:36:20;;;;;;;12.40;3.83;;;;;;;10.58;100.00;101432.94;4983523;28;20064;-79
2023/02/14 07:38:46;;;;;;;8.55;3.58;;;;;;;10.69;100.00;101430.00;5015847;28;20486;-79
2023/02/14 07:41:11;;;;;;;9.05;3.47;;;;;;;10.75;100.00;101437.41;4999082;28;20037;-78
2023/02/14 07:43:40;;;;;;;11.05;4.75;;;;;;;10.71;100.00;101417.19;4998429;28;20483;-80
2023/02/14 07:46:05;;;;;;;5.38;3.63;;;;;;;10.78;100.00;101417.41;4982853;28;20048;-79
2023/02/14 07:48:31;;;;;;;5.93;3.20;;;;;;;10.94;100.00;101432.78;4998485;28;20485;-78
2023/02/14 07:50:57;;;;;;;8.43;3.92;;;;;;;11.00;100.00;101440.22;4998922;28;20026;-79
2023/02/14 07:53:23;;;;;;;10.38;4.80;;;;;;;11.03;100.00;101439.03;5015368;28;20026;-78
2023/02/14 07:55:52;;;;;;;5.88;2.50;;;;;;;11.04;100.00;101441.59;4983085;28;20558;-78
2023/02/14 07:58:17;;;;;;;7.75;2.60;;;;;;;11.06;100.00;101436.03;4998375;28;20132;-80
2023/02/14 08:00:45;;;;;;;7.68;2.75;;;;;;;11.11;100.00;101436.38;4982946;28;20125;-79
2023/02/14 08:03:12;;;;;;;7.95;3.08;;;;;;;11.14;100.00;101438.75;5014996;28;20109;-79
2023/02/14 08:05:38;;;;;;;6.05;2.50;;;;;;;11.16;100.00;101442.13;5014234;28;20088;-77
2023/02/14 08:08:04;;;;;;;8.10;2.83;;;;;;;11.18;100.00;101438.25;4998836;28;20117;-79
2023/02/14 08:10:29;;;;;;;8.38;3.72;;;;;;;11.18;100.00;101448.19;4982022;28;20727;-80
2023/02/14 08:13:02;;;;;;;13.32;3.17;;;;;;;11.18;100.00;101437.41;4982570;28;20038;-81
2023/02/14 08:18:21;;;;;;;15.27;4.55;;;;;;;11.27;100.00;101447.19;5001120;28;20037;-77
2023/02/14 08:20:50;;;;;;;7.80;3.03;;;;;;;11.08;100.00;101409.78;5014491;28;20025;-79
2023/02/14 08:23:17;;;;;;;8.30;2.50;;;;;;;11.36;100.00;101442.69;5014488;28;20056;-77
2023/02/14 08:25:47;;;;;;;7.78;2.38;;;;;;;11.30;100.00;101433.44;4998434;28;20040;-79
2023/02/14 08:28:13;;;;;;;10.20;2.60;;;;;;;11.35;100.00;101436.47;4998506;28;20026;-79
2023/02/14 08:30:43;;;;;;;7.55;2.70;;;;;;;11.33;100.00;101443.03;4999041;28;20546;-79
2023/02/14 08:33:09;;;;;;;6.50;2.38;;;;;;;11.36;100.00;101446.22;5014732;28;20532;-79
2023/02/14 08:35:35;;;;;;;8.70;2.30;;;;;;;11.30;100.00;101433.44;4998244;28;20113;-77
2023/02/14 08:38:04;;;;;;;4.45;1.90;;;;;;;11.43;100.00;101452.66;5014575;28;20140;-77
2023/02/14 08:40:30;;;;;;;4.93;2.33;;;;;;;11.48;100.00;101445.91;5014237;28;20054;-79
2023/02/14 08:42:55;;;;;;;7.18;2.38;;;;;;;11.51;100.00;101448.28;5014143;28;20061;-80
2023/02/14 08:45:21;;;;;;;5.53;2.30;;;;;;;11.50;100.00;101439.34;4997849;28;20538;-79
2023/02/14 08:47:47;;;;;;;9.30;3.00;;;;;;;11.54;100.00;101454.19;4998019;28;20044;-78
2023/02/14 08:50:16;;;;;;;8.00;2.63;;;;;;;11.55;100.00;101446.94;4997959;28;20454;-79
2023/02/14 08:52:42;;;;;;;7.15;2.78;;;;;;;11.59;100.00;101440.19;4998079;28;20486;-80
2023/02/14 08:55:10;;;;;;;11.40;3.10;;;;;;;11.46;100.00;101435.31;5014095;28;20087;-80
2023/02/14 08:57:36;;;;;;;10.77;3.53;;;;;;;11.37;100.00;101434.44;5013857;28;20065;-80
2023/02/14 09:00:05;;;;;;;8.75;3.15;;;;;;;11.35;100.00;101441.88;4981421;28;20069;-77
2023/02/14 09:02:31;;;;;;;13.45;3.75;;;;;;;11.32;100.00;101438.63;5013372;28;20072;-80
2023/02/14 09:04:56;;;;;;;11.57;4.65;;;;;;;11.32;100.00;101436.78;5013752;28;20445;-80
2023/02/14 09:07:22;;;;;;;22.73;7.95;;;;;;;11.31;100.00;101434.28;4997739;28;20375;-80
2023/02/14 09:09:48;;;;;;;12.52;4.50;;;;;;;11.38;100.00;101435.31;4981568;28;20387;-79
2023/02/14 09:12:14;;;;;;;13.50;5.45;;;;;;;11.51;100.00;101430.28;4997779;28;20038;-79
2023/02/14 09:14:45;;;;;;;12.52;7.43;;;;;;;11.56;100.00;101427.91;5013281;28;20376;-79
2023/02/14 09:17:12;;;;;;;7.60;3.90;;;;;;;11.55;100.00;101425.41;5013025;28;20034;-80
2023/02/14 09:19:38;;;;;;;8.13;3.58;;;;;;;11.51;100.00;101424.03;4997006;28;20061;-79
2023/02/14 09:22:06;;;;;;;5.00;2.70;;;;;;;11.56;100.00;101427.06;5013144;28;20107;-80
2023/02/14 09:24:34;;;;;;;6.53;2.13;;;;;;;11.66;100.00;101443.94;5013452;28;20056;-80
2023/02/14 09:27:04;;;;;;;9.48;2.97;;;;;;;11.75;100.00;101424.09;4997174;28;20115;-78
2023/02/14 09:29:30;;;;;;;5.82;1.90;;;;;;;12.32;100.00;101442.13;4996932;28;20045;-78
2023/02/14 09:32:00;;;;;;;6.35;3.20;;;;;;;12.50;100.00;101445.47;4980822;28;20034;-77
2023/02/14 09:39:59;;;;;;;2.50;1.83;;;;;;;12.56;100.00;101462.81;4999360;28;20392;-77
2023/02/14 09:43:12;;;;;;;7.32;3.25;;;;;;;12.56;100.00;101454.72;4981158;28;20033;-79
2023/02/14 09:45:38;;;;;;;13.68;3.03;;;;;;;12.48;100.00;101458.28;4956784;28;20027;-77
2023/02/14 09:48:21;;;;;;;19.00;3.03;;;;;;;12.41;100.00;101470.78;4973005;28;20042;-78
2023/02/14 09:50:53;;;;;;;16.85;4.38;;;;;;;12.28;100.00;101460.50;4980778;28;20091;-78
2023/02/14 09:53:35;;;;;;;10.32;3.80;;;;;;;12.24;100.00;101469.09;5012675;28;20036;-80
2023/02/14 09:56:38;;;;;;;12.25;3.47;;;;;;;12.23;100.00;101472.81;4997084;28;20034;-77
2023/02/14 09:59:33;;;;;;;9.60;2.25;;;;;;;12.25;100.00;101482.41;5014190;28;20037;-77
2023/02/14 10:02:08;;;;;;;7.13;2.70;;;;;;;12.23;100.00;101475.50;5013200;28;20038;-78
2023/02/14 10:04:48;;;;;;;16.63;3.80;;;;;;;12.16;100.00;101469.94;5013091;28;20103;-77
2023/02/14 10:07:52;;;;;;;15.30;3.75;;;;;;;12.22;100.00;101474.63;4997085;28;20099;-77
2023/02/14 10:10:25;;;;;;;11.93;2.80;;;;;;;12.31;100.00;101486.28;4997643;28;20051;-78
2023/02/14 10:12:56;;;;;;;15.93;4.00;;;;;;;12.31;100.00;101470.94;5012494;28;20133;-77
2023/02/14 10:15:27;;;;;;;13.70;3.10;;;;;;;12.50;100.00;101479.69;4996521;28;20042;-79
2023/02/14 10:18:11;;;;;;;18.15;4.78;;;;;;;12.53;100.00;101480.19;5012429;28;20109;-78
2023/02/14 10:20:44;;;;;;;19.83;5.22;;;;;;;12.50;100.00;101474.28;4996701;28;20116;-77
2023/02/14 10:23:28;;;;;;;23.98;7.43;;;;;;;12.48;100.00;101479.84;5012854;28;20029;-78
2023/02/14 10:26:12;;;;;;;25.38;5.03;;;;;;;12.54;100.00;101489.09;4995923;28;20038;-77
2023/02/14 10:28:45;;;;;;;15.27;4.47;;;;;;;12.54;100.00;101486.41;4981312;28;20029;-77
2023/02/14 10:31:54;;;;;;;24.48;5.30;;;;;;;12.53;100.00;101480.19;5012508;28;20038;-78
2023/02/14 10:34:31;;;;;;;26.25;5.55;;;;;;;12.49;100.00;101478.84;4992381;28;20042;-77
2023/02/14 10:37:15;;;;;;;32.47;6.28;;;;;;;12.46;100.00;101486.44;4980602;28;20038;-78
2023/02/14 10:40:03;;;;;;;33.95;8.35;;;;;;;12.44;100.00;101478.53;5012985;28;20038;-77
2023/02/14 10:42:42;;;;;;;17.98;5.15;;;;;;;12.42;100.00;101483.22;4979774;28;20178;-76
2023/02/14 10:45:43;;;;;;;16.08;5.50;;;;;;;12.47;100.00;101478.19;5012263;28;20091;-77
2023/02/14 10:48:37;;;;;;;26.73;8.60;;;;;;;12.48;100.00;101470.91;5012384;28;20383;-76
2023/02/14 10:51:22;;;;;;;25.20;9.15;;;;;;;12.67;100.00;101485.88;5012607;28;20041;-77
2023/02/14 10:54:02;;;;;;;30.48;8.77;;;;;;;12.80;100.00;101488.06;5012470;28;20038;-77
2023/02/14 10:56:48;;;;;;;25.08;8.07;;;;;;;12.81;100.00;101479.81;5028535;28;20033;-77
2023/02/14 10:59:22;;;;;;;33.13;6.22;;;;;;;12.83;100.00;101476.91;4996373;28;20041;-77
2023/02/14 11:01:51;;;;;;;13.98;3.42;;;;;;;12.82;100.00;101480.63;4996298;28;20518;-77
2023/02/14 11:04:19;;;;;;;24.40;5.07;;;;;;;12.89;100.00;101489.72;4996042;28;20034;-77
2023/02/14 11:06:47;;;;;;;21.73;5.82;;;;;;;12.97;100.00;101478.91;4996072;28;20056;-77
2023/02/14 11:09:14;;;;;;;23.15;5.35;;;;;;;13.27;100.00;101461.09;5028408;28;20057;-77
2023/02/14 11:11:46;;;;;;;24.23;5.82;;;;;;;14.37;100.00;101462.66;5011912;28;20052;-77
2023/02/14 11:14:28;;;;;;;10.90;3.55;;;;;;;14.52;100.00;101464.41;4995882;28;20388;-76
2023/02/14 11:16:57;;;;;;;22.73;5.57;;;;;;;14.49;100.00;101472.03;4995844;28;20026;-76
2023/02/14 11:19:34;;;;;;;14.40;3.97;;;;;;;14.57;100.00;101481.97;4996266;28;20038;-76
2023/02/14 11:22:01;;;;;;;24.33;4.93;;;;;;;14.65;100.00;101469.16;5012256;28;20048;-76
2023/02/14 11:24:33;;;;;;;19.40;7.63;;;;;;;15.15;100.00;101464.03;4981334;28;20156;-76
2023/02/14 11:27:11;;;;;;;26.45;6.50;;;;;;;15.42;98.11;101458.94;5016068;28;20049;-77
2023/02/14 11:29:39;;;;;;;17.77;5.10;;;;;;;15.16;98.62;101461.16;5016944;28;20116;-76
2023/02/14 11:32:12;;;;;;;22.60;5.13;;;;;;;14.77;100.00;101456.03;5015854;28;20072;-77
2023/02/14 11:34:40;;;;;;;23.42;5.60;;;;;;;14.49;100.00;101456.63;5016599;28;20145;-78
2023/02/14 11:37:21;;;;;;;23.83;5.28;;;;;;;14.67;100.00;101463.59;4983292;28;20143;-78
2023/02/14 11:39:48;;;;;;;15.48;4.97;;;;;;;14.59;100.00;101460.97;5015661;28;20029;-78
2023/02/14 11:42:32;;;;;;;19.25;4.20;;;;;;;14.51;100.00;101453.75;5015342;28;20125;-78
2023/02/14 11:44:58;;;;;;;25.52;5.57;;;;;;;14.36;100.00;101450.16;5015447;28;20076;-77
2023/02/14 11:47:29;;;;;;;27.20;6.57;;;;;;;14.26;100.00;101450.41;5016571;28;20038;-78
2023/02/14 11:50:11;;;;;;;25.13;6.05;;;;;;;14.05;100.00;101448.41;4983005;28;20034;-77
2023/02/14 11:52:48;;;;;;;22.33;5.93;;;;;;;13.87;100.00;101440.63;4969321;28;20034;-77
2023/02/14 11:55:29;;;;;;;16.67;4.28;;;;;;;13.79;100.00;101435.28;5031900;28;20041;-77